Terminal Aerodrome Forecast
Issued by NWS

Home | Current Version | Previous Version | Text Only | Print | Product List | Glossary On
Versions: 1 2 3 4 5 6 7 8 9 10 11 12 13 14 15 16 17 18 19 20 21 22 23 24 25 26 27 28
000
FTUS45 KGJT 211131
TAFDRO
TAF
KDRO 211131Z 2112/2212 03005KT P6SM SKC
     FM211500 12004KT P6SM SKC
     FM211700 19007KT P6SM SKC
     FM211900 21015G30KT P6SM SKC
     FM220300 22012G22KT P6SM FEW090 FEW200
     FM220700 19004KT P6SM SCT080 BKN120=

USA.gov is the U.S. government's official web portal to all federal, state and local government web resources and services.